Time;durP1;ratioP1;P1;durP2;ratioP2;P2;SDS_P1;SDS_P2;PMS_P1;PMS_P2;Temp;Humidity;BMP_temperature;BMP_pressure;BME280_temperature;BME280_humidity;BME280_pressure;Samples;Min_cycle;Max_cycle;Signal;HPM_P1;HPM_P2
2022/08/08 00:01:08;;;;;;;;;;;16.80;99.90;;;;;;4842480;29;20341;-37
2022/08/08 00:03:36;;;;;;;;;;;16.80;99.90;;;;;;4840423;29;19915;-37
2022/08/08 00:06:10;;;;;;;;;;;16.80;99.90;;;;;;4841826;29;19912;-37
2022/08/08 00:08:35;;;;;;;;;;;16.70;99.90;;;;;;4846250;29;19940;-37
2022/08/08 00:11:19;;;;;;;;;;;16.70;99.90;;;;;;4828630;29;20338;-37
2022/08/08 00:13:49;;;;;;;;;;;16.70;99.90;;;;;;4838122;29;19920;-37
2022/08/08 00:16:25;;;;;;;;;;;16.70;99.90;;;;;;4841818;29;19961;-36
2022/08/08 00:18:53;;;;;;;;;;;16.60;99.90;;;;;;4841089;29;20370;-37
2022/08/08 00:21:21;;;;;;;;;;;16.50;99.90;;;;;;4841145;29;19912;-37
2022/08/08 00:23:49;;;;;;;;;;;16.50;99.90;;;;;;4843334;29;19912;-39
2022/08/08 00:26:18;;;;;;;;;;;16.50;99.90;;;;;;4851124;29;19916;-39
2022/08/08 00:28:46;;;;;;;;;;;16.40;99.90;;;;;;4849796;29;19909;-39
2022/08/08 00:31:14;;;;;;;;;;;16.40;99.90;;;;;;4841448;29;19919;-34
2022/08/08 00:33:44;;;;;;;;;;;16.40;99.90;;;;;;4847951;29;20332;-38
2022/08/08 00:36:25;;;;;;;;;;;16.40;99.90;;;;;;4841233;29;19916;-33
2022/08/08 00:39:10;;;;;;;;;;;16.40;99.90;;;;;;4837747;29;20426;-33
2022/08/08 00:41:38;;;;;;;;;;;16.40;99.90;;;;;;4838769;29;19949;-32
2022/08/08 00:44:09;;;;;;;;;;;16.40;99.90;;;;;;4842265;29;20461;-36
2022/08/08 00:46:38;;;;;;;;;;;16.30;99.90;;;;;;4843028;29;20433;-33
2022/08/08 00:49:21;;;;;;;;;;;16.30;99.90;;;;;;4847560;29;19919;-35
2022/08/08 00:51:47;;;;;;;;;;;16.30;99.90;;;;;;4846356;29;19914;-37
2022/08/08 00:54:15;;;;;;;;;;;16.30;99.90;;;;;;4837753;29;20366;-39
2022/08/08 00:56:50;;;;;;;;;;;16.30;99.90;;;;;;4842380;29;20350;-38
2022/08/08 00:59:34;;;;;;;;;;;16.20;99.90;;;;;;4843450;29;19923;-41
2022/08/08 01:02:00;;;;;;;;;;;16.20;99.90;;;;;;4837732;29;19928;-33
2022/08/08 01:04:28;;;;;;;;;;;16.10;99.90;;;;;;4842995;29;19960;-36
2022/08/08 01:06:59;;;;;;;;;;;16.20;99.90;;;;;;4843188;29;19908;-36
2022/08/08 01:09:28;;;;;;;;;;;16.10;99.90;;;;;;4844328;29;19922;-36
2022/08/08 01:12:12;;;;;;;;;;;16.10;99.90;;;;;;4840458;29;19961;-36
2022/08/08 01:14:49;;;;;;;;;;;16.10;99.90;;;;;;4842558;29;19921;-37
2022/08/08 01:17:30;;;;;;;;;;;16.10;99.90;;;;;;4845600;29;19975;-37
2022/08/08 01:20:13;;;;;;;;;;;16.10;99.90;;;;;;4846625;29;19908;-38
2022/08/08 01:22:57;;;;;;;;;;;16.00;99.90;;;;;;4847728;29;20298;-36
2022/08/08 01:25:41;;;;;;;;;;;16.00;99.90;;;;;;4847538;29;20071;-40
2022/08/08 01:28:33;;;;;;;;;;;16.00;99.90;;;;;;4852997;29;20452;-35
2022/08/08 01:30:58;;;;;;;;;;;16.00;99.90;;;;;;4840814;29;19915;-35
2022/08/08 01:33:30;;;;;;;;;;;16.10;99.90;;;;;;4842532;29;20417;-40
2022/08/08 01:35:55;;;;;;;;;;;16.00;99.90;;;;;;4863853;29;20353;-37
2022/08/08 01:38:53;;;;;;;;;;;16.00;99.90;;;;;;4867679;29;19908;-32
2022/08/08 01:41:37;;;;;;;;;;;16.00;99.90;;;;;;4827474;29;20373;-34
2022/08/08 01:44:16;;;;;;;;;;;16.00;99.90;;;;;;4862713;29;19923;-37
2022/08/08 01:46:45;;;;;;;;;;;16.00;99.90;;;;;;4840595;29;19912;-39
2022/08/08 01:49:13;;;;;;;;;;;16.00;99.90;;;;;;4840873;29;20362;-40
2022/08/08 01:51:59;;;;;;;;;;;16.00;99.90;;;;;;4842125;29;20334;-37
2022/08/08 01:54:30;;;;;;;;;;;16.00;99.90;;;;;;4840202;29;20000;-37
2022/08/08 01:57:05;;;;;;;;;;;15.90;99.90;;;;;;4845863;29;19912;-33
2022/08/08 01:59:49;;;;;;;;;;;15.90;99.90;;;;;;4840272;29;20003;-33
2022/08/08 02:02:24;;;;;;;;;;;16.00;99.90;;;;;;4846804;29;19981;-35
2022/08/08 02:05:00;;;;;;;;;;;15.90;99.90;;;;;;4824128;29;20409;-44
2022/08/08 02:07:25;;;;;;;;;;;15.90;99.90;;;;;;4829493;29;19948;-37
2022/08/08 02:10:10;;;;;;;;;;;15.90;99.90;;;;;;4863559;29;19985;-40
2022/08/08 02:12:43;;;;;;;;;;;15.80;99.90;;;;;;4852718;29;20126;-39
2022/08/08 02:15:20;;;;;;;;;;;15.80;99.90;;;;;;4831338;29;19917;-37
2022/08/08 02:18:09;;;;;;;;;;;15.80;99.90;;;;;;4845396;29;19912;-50
2022/08/08 02:22:30;;;;;;;;;;;15.80;99.90;;;;;;4844294;29;19908;-36
2022/08/08 02:23:35;;;;;;;;;;;15.80;99.90;;;;;;4841443;29;19973;-37
2022/08/08 02:26:07;;;;;;;;;;;15.80;99.90;;;;;;4844236;29;20701;-40
2022/08/08 02:28:44;;;;;;;;;;;15.80;99.90;;;;;;4840031;29;19914;-39
2022/08/08 02:31:28;;;;;;;;;;;15.80;99.90;;;;;;4839410;29;19973;-36
2022/08/08 02:34:14;;;;;;;;;;;15.90;99.90;;;;;;4850647;29;20007;-36
2022/08/08 02:36:42;;;;;;;;;;;15.80;99.90;;;;;;4838520;29;19916;-36
2022/08/08 02:39:24;;;;;;;;;;;15.80;99.90;;;;;;4840534;29;19919;-36
2022/08/08 02:42:05;;;;;;;;;;;15.80;99.90;;;;;;4842476;29;20445;-34
2022/08/08 02:44:49;;;;;;;;;;;15.70;99.90;;;;;;4847748;29;19924;-40
2022/08/08 02:47:15;;;;;;;;;;;15.80;99.90;;;;;;4841766;29;20008;-32
2022/08/08 02:49:57;;;;;;;;;;;15.70;99.90;;;;;;4839381;29;19973;-35
2022/08/08 02:52:41;;;;;;;;;;;15.70;99.90;;;;;;4839639;29;20385;-33
2022/08/08 02:55:23;;;;;;;;;;;15.60;99.90;;;;;;4841496;29;19912;-37
2022/08/08 02:58:04;;;;;;;;;;;15.60;99.90;;;;;;4850935;29;19913;-35
2022/08/08 03:00:29;;;;;;;;;;;15.60;99.90;;;;;;4845558;29;19972;-39
2022/08/08 03:03:07;;;;;;;;;;;15.60;99.90;;;;;;4842702;29;21546;-38
2022/08/08 03:05:51;;;;;;;;;;;15.60;99.90;;;;;;4847450;29;20263;-33
2022/08/08 03:08:26;;;;;;;;;;;15.50;99.90;;;;;;4838415;29;20290;-35
2022/08/08 03:11:00;;;;;;;;;;;15.50;99.90;;;;;;4850755;29;20068;-34
2022/08/08 03:13:45;;;;;;;;;;;15.50;99.90;;;;;;4840982;29;19932;-38
2022/08/08 03:16:29;;;;;;;;;;;15.50;99.90;;;;;;4839236;29;20016;-39
2022/08/08 03:19:13;;;;;;;;;;;15.40;99.90;;;;;;4838793;29;20014;-41
2022/08/08 03:21:38;;;;;;;;;;;15.40;99.90;;;;;;4838659;29;20019;-43
2022/08/08 03:24:04;;;;;;;;;;;15.40;99.90;;;;;;4838919;29;20374;-33
2022/08/08 03:26:30;;;;;;;;;;;15.30;99.90;;;;;;4838956;29;19917;-35
2022/08/08 03:28:58;;;;;;;;;;;15.30;99.90;;;;;;4852316;29;20650;-39
2022/08/08 03:34:08;;;;;;;;;;;15.30;99.90;;;;;;4846749;29;20310;-36
2022/08/08 03:36:40;;;;;;;;;;;15.20;99.90;;;;;;4842941;29;20207;-38
2022/08/08 03:39:06;;;;;;;;;;;15.20;99.90;;;;;;4846987;29;19964;-38
2022/08/08 03:41:32;;;;;;;;;;;15.20;99.90;;;;;;4836772;29;20330;-35
2022/08/08 03:43:57;;;;;;;;;;;15.20;99.90;;;;;;4849269;29;19955;-39
2022/08/08 03:46:23;;;;;;;;;;;15.20;99.90;;;;;;4837978;29;20445;-36
2022/08/08 03:48:59;;;;;;;;;;;15.20;99.90;;;;;;4845585;29;19913;-37
2022/08/08 03:51:25;;;;;;;;;;;15.20;99.90;;;;;;4841224;29;19956;-38
2022/08/08 03:53:51;;;;;;;;;;;15.20;99.90;;;;;;4838149;29;19913;-38
2022/08/08 03:56:17;;;;;;;;;;;15.20;99.90;;;;;;4838734;29;19959;-38
2022/08/08 03:58:47;;;;;;;;;;;15.20;99.90;;;;;;4838083;29;19967;-41
2022/08/08 04:01:12;;;;;;;;;;;15.20;99.90;;;;;;4838739;29;19961;-41
2022/08/08 04:03:37;;;;;;;;;;;15.30;99.90;;;;;;4852679;29;19919;-38
2022/08/08 04:06:06;;;;;;;;;;;15.30;99.90;;;;;;4846498;29;19999;-35
2022/08/08 04:08:34;;;;;;;;;;;15.30;99.90;;;;;;4848782;29;20358;-38
2022/08/08 04:11:00;;;;;;;;;;;15.40;99.90;;;;;;4842601;29;19916;-37
2022/08/08 04:13:27;;;;;;;;;;;15.30;99.90;;;;;;4823312;29;20374;-38
2022/08/08 04:15:52;;;;;;;;;;;15.30;99.90;;;;;;4827969;29;20449;-37
2022/08/08 04:18:18;;;;;;;;;;;15.30;99.90;;;;;;4839494;29;20019;-37
2022/08/08 04:20:43;;;;;;;;;;;15.40;99.90;;;;;;4841429;29;19912;-54
2022/08/08 04:23:08;;;;;;;;;;;15.40;99.90;;;;;;4838336;29;19920;-38
2022/08/08 04:25:34;;;;;;;;;;;15.50;99.90;;;;;;4841657;29;20338;-48
2022/08/08 04:28:00;;;;;;;;;;;15.40;99.90;;;;;;4838099;29;19912;-37
2022/08/08 04:30:25;;;;;;;;;;;15.40;99.90;;;;;;4843445;29;20384;-37
2022/08/08 04:32:51;;;;;;;;;;;15.40;99.90;;;;;;4842905;29;19948;-40
2022/08/08 04:35:18;;;;;;;;;;;15.30;99.90;;;;;;4849433;29;19943;-38
2022/08/08 04:37:43;;;;;;;;;;;15.30;99.90;;;;;;4845945;29;20377;-40
2022/08/08 04:40:09;;;;;;;;;;;15.40;99.90;;;;;;4844025;29;20022;-38
2022/08/08 04:45:19;;;;;;;;;;;15.30;99.90;;;;;;4845529;29;20705;-34
2022/08/08 04:47:45;;;;;;;;;;;15.30;99.90;;;;;;4845181;29;19916;-35
2022/08/08 04:50:10;;;;;;;;;;;15.30;99.90;;;;;;4845199;29;19923;-35
2022/08/08 04:52:36;;;;;;;;;;;15.30;99.90;;;;;;4844623;29;19913;-35
2022/08/08 04:55:01;;;;;;;;;;;15.30;99.90;;;;;;4851863;29;19912;-39
2022/08/08 04:57:27;;;;;;;;;;;15.30;99.90;;;;;;4849111;29;20350;-39
2022/08/08 04:59:52;;;;;;;;;;;15.40;99.90;;;;;;4850857;29;19931;-38
2022/08/08 05:02:18;;;;;;;;;;;15.40;99.90;;;;;;4846107;29;20373;-40
2022/08/08 05:04:43;;;;;;;;;;;15.40;99.90;;;;;;4845941;29;19916;-34
2022/08/08 05:07:09;;;;;;;;;;;15.40;99.90;;;;;;4840103;29;20358;-37
2022/08/08 05:09:35;;;;;;;;;;;15.50;99.90;;;;;;4836028;29;20285;-40
2022/08/08 05:12:02;;;;;;;;;;;15.50;99.90;;;;;;4855816;29;20052;-40
2022/08/08 05:14:27;;;;;;;;;;;15.50;99.90;;;;;;4848076;29;19936;-34
2022/08/08 05:16:53;;;;;;;;;;;15.60;99.90;;;;;;4848284;29;20329;-35
2022/08/08 05:19:18;;;;;;;;;;;15.60;99.90;;;;;;4846749;29;20361;-37
2022/08/08 05:21:44;;;;;;;;;;;15.70;99.90;;;;;;4856727;29;20006;-41
2022/08/08 05:24:10;;;;;;;;;;;15.70;99.90;;;;;;4852436;29;20462;-35
2022/08/08 05:26:36;;;;;;;;;;;15.80;99.90;;;;;;4847779;29;19959;-35
2022/08/08 05:29:03;;;;;;;;;;;15.90;99.90;;;;;;4851158;29;19955;-36
2022/08/08 05:31:29;;;;;;;;;;;15.90;99.90;;;;;;4858622;29;19908;-37
2022/08/08 05:33:55;;;;;;;;;;;16.00;99.90;;;;;;4830262;29;19912;-36
2022/08/08 05:36:22;;;;;;;;;;;16.10;99.90;;;;;;4841221;29;19915;-41
2022/08/08 05:38:49;;;;;;;;;;;16.10;99.90;;;;;;4840984;29;19963;-36
2022/08/08 05:41:19;;;;;;;;;;;16.20;99.90;;;;;;4841063;29;20369;-39
2022/08/08 05:43:45;;;;;;;;;;;16.30;99.90;;;;;;4849692;29;19918;-38
2022/08/08 05:46:10;;;;;;;;;;;16.30;99.90;;;;;;4842852;29;20011;-35
2022/08/08 05:48:36;;;;;;;;;;;16.40;99.90;;;;;;4841833;29;20440;-35
2022/08/08 05:51:02;;;;;;;;;;;16.40;99.90;;;;;;4849557;29;19915;-35
2022/08/08 05:53:28;;;;;;;;;;;16.50;99.90;;;;;;4849124;29;19912;-33
2022/08/08 05:55:55;;;;;;;;;;;16.60;99.90;;;;;;4840842;29;19938;-37
2022/08/08 05:58:25;;;;;;;;;;;16.70;99.90;;;;;;4845481;29;20006;-38
2022/08/08 06:00:53;;;;;;;;;;;16.80;99.90;;;;;;4856798;29;20478;-35
2022/08/08 06:03:20;;;;;;;;;;;16.90;99.90;;;;;;4840691;29;20003;-38
2022/08/08 06:05:49;;;;;;;;;;;16.90;99.90;;;;;;4840852;29;19909;-37
2022/08/08 06:08:16;;;;;;;;;;;17.00;99.90;;;;;;4839821;29;19912;-39
2022/08/08 06:10:43;;;;;;;;;;;17.10;99.90;;;;;;4851882;29;19912;-37
2022/08/08 06:13:09;;;;;;;;;;;17.20;99.90;;;;;;4829449;29;20007;-37
2022/08/08 06:15:36;;;;;;;;;;;17.30;99.90;;;;;;4843832;29;20049;-34
2022/08/08 06:18:02;;;;;;;;;;;17.40;99.90;;;;;;4839420;29;19909;-39
2022/08/08 06:20:28;;;;;;;;;;;17.50;99.90;;;;;;4824017;29;20382;-43
2022/08/08 06:22:53;;;;;;;;;;;17.60;99.90;;;;;;4840804;29;19919;-34
2022/08/08 06:25:19;;;;;;;;;;;17.70;99.90;;;;;;4841087;29;19941;-37
2022/08/08 06:27:46;;;;;;;;;;;17.90;99.90;;;;;;4851187;29;19940;-36
2022/08/08 06:30:13;;;;;;;;;;;18.10;99.90;;;;;;4852481;29;19908;-37
2022/08/08 06:32:47;;;;;;;;;;;18.20;99.90;;;;;;4849760;29;20377;-37
2022/08/08 06:35:14;;;;;;;;;;;18.30;99.90;;;;;;4838588;29;19912;-37
2022/08/08 06:37:47;;;;;;;;;;;18.50;99.90;;;;;;4842722;29;20532;-35
2022/08/08 06:40:14;;;;;;;;;;;18.60;99.90;;;;;;4842197;29;19940;-42
2022/08/08 06:42:40;;;;;;;;;;;18.60;99.90;;;;;;4841615;29;20048;-36
2022/08/08 06:45:06;;;;;;;;;;;18.70;99.90;;;;;;4840676;29;20388;-37
2022/08/08 06:47:33;;;;;;;;;;;18.80;99.90;;;;;;4845580;29;19912;-37
2022/08/08 06:49:59;;;;;;;;;;;19.00;99.90;;;;;;4839378;29;20262;-38
2022/08/08 06:52:25;;;;;;;;;;;19.10;99.90;;;;;;4840510;29;19913;-36
2022/08/08 06:54:51;;;;;;;;;;;19.30;99.90;;;;;;4840057;29;19908;-38
2022/08/08 06:57:16;;;;;;;;;;;19.50;99.90;;;;;;4839171;29;20378;-37
2022/08/08 06:59:42;;;;;;;;;;;19.70;99.90;;;;;;4838283;29;20263;-37
2022/08/08 07:02:11;;;;;;;;;;;19.90;99.90;;;;;;4837655;29;20126;-40
2022/08/08 07:05:05;;;;;;;;;;;20.00;99.90;;;;;;4850527;29;19925;-35
2022/08/08 07:07:34;;;;;;;;;;;20.20;99.90;;;;;;4842230;29;19913;-37
2022/08/08 07:10:04;;;;;;;;;;;20.30;99.90;;;;;;4839196;29;19927;-35
2022/08/08 07:12:37;;;;;;;;;;;20.50;99.90;;;;;;4839886;29;20007;-38
2022/08/08 07:15:05;;;;;;;;;;;20.80;99.90;;;;;;4842004;29;20235;-35
2022/08/08 07:17:35;;;;;;;;;;;21.10;99.90;;;;;;4849637;29;20380;-37
2022/08/08 07:20:04;;;;;;;;;;;21.10;99.90;;;;;;4850048;29;19908;-40
2022/08/08 07:22:40;;;;;;;;;;;21.00;99.90;;;;;;4851994;29;20014;-34
2022/08/08 07:25:08;;;;;;;;;;;21.10;99.90;;;;;;4839953;29;19920;-38
2022/08/08 07:27:54;;;;;;;;;;;21.10;99.90;;;;;;4842228;29;19916;-38
2022/08/08 07:30:19;;;;;;;;;;;21.00;99.90;;;;;;4840695;29;19916;-36
2022/08/08 07:32:46;;;;;;;;;;;21.00;99.90;;;;;;4841850;29;20279;-39
2022/08/08 07:35:12;;;;;;;;;;;21.00;99.90;;;;;;4853189;29;19919;-38
2022/08/08 07:37:38;;;;;;;;;;;21.00;99.90;;;;;;4846661;29;20297;-37
2022/08/08 07:40:04;;;;;;;;;;;21.00;99.90;;;;;;4842036;29;19912;-37
2022/08/08 07:42:31;;;;;;;;;;;21.00;99.90;;;;;;4848917;29;19920;-37
2022/08/08 07:44:56;;;;;;;;;;;21.10;99.90;;;;;;4849357;29;19924;-44
2022/08/08 07:47:22;;;;;;;;;;;21.10;99.90;;;;;;4845393;29;19912;-37
2022/08/08 07:49:47;;;;;;;;;;;21.00;99.90;;;;;;4843522;29;19916;-32
2022/08/08 07:52:13;;;;;;;;;;;21.00;99.90;;;;;;4846784;29;19920;-39
2022/08/08 07:54:47;;;;;;;;;;;21.10;99.90;;;;;;4847855;29;19923;-37
2022/08/08 07:57:13;;;;;;;;;;;21.10;99.90;;;;;;4842185;29;20385;-32
2022/08/08 07:59:43;;;;;;;;;;;21.20;99.90;;;;;;4838370;29;19963;-42
2022/08/08 08:02:13;;;;;;;;;;;21.30;99.90;;;;;;4840093;29;19921;-38
2022/08/08 08:04:41;;;;;;;;;;;21.40;99.90;;;;;;4839700;29;20026;-36
2022/08/08 08:07:07;;;;;;;;;;;21.60;99.90;;;;;;4840436;29;19935;-39
2022/08/08 08:09:36;;;;;;;;;;;21.80;99.90;;;;;;4840452;29;20783;-35
2022/08/08 08:12:02;;;;;;;;;;;22.10;99.90;;;;;;4846043;29;19970;-35
2022/08/08 08:14:33;;;;;;;;;;;22.30;99.90;;;;;;4854760;29;19912;-36
2022/08/08 08:16:59;;;;;;;;;;;22.40;99.90;;;;;;4843177;29;20586;-40
2022/08/08 08:19:33;;;;;;;;;;;22.40;99.90;;;;;;4842939;29;19919;-37
2022/08/08 08:21:58;;;;;;;;;;;22.30;99.90;;;;;;4825608;29;19922;-35
2022/08/08 08:24:24;;;;;;;;;;;22.20;99.90;;;;;;4845145;29;20388;-31
2022/08/08 08:26:50;;;;;;;;;;;22.00;99.90;;;;;;4849011;29;20444;-35
2022/08/08 08:29:15;;;;;;;;;;;22.00;99.90;;;;;;4850372;29;20006;-38
2022/08/08 08:31:41;;;;;;;;;;;21.80;99.90;;;;;;4841581;29;19934;-38
2022/08/08 08:34:06;;;;;;;;;;;21.60;99.90;;;;;;4856431;29;19977;-50
2022/08/08 08:36:32;;;;;;;;;;;21.70;99.90;;;;;;4843171;29;20377;-36
2022/08/08 08:38:58;;;;;;;;;;;21.70;99.90;;;;;;4840719;29;19912;-36
2022/08/08 08:41:24;;;;;;;;;;;21.30;99.90;;;;;;4842133;29;19924;-35
2022/08/08 08:43:49;;;;;;;;;;;21.00;99.90;;;;;;4856728;29;19928;-42
2022/08/08 08:46:15;;;;;;;;;;;20.70;99.90;;;;;;4840650;29;19912;-39
2022/08/08 08:48:41;;;;;;;;;;;20.60;99.90;;;;;;4855283;29;19909;-36
2022/08/08 08:51:11;;;;;;;;;;;20.70;99.90;;;;;;4843579;29;19908;-35
2022/08/08 08:53:40;;;;;;;;;;;20.70;99.90;;;;;;4853676;29;20378;-31
2022/08/08 08:56:06;;;;;;;;;;;20.60;99.90;;;;;;4854191;29;19987;-38
2022/08/08 08:58:42;;;;;;;;;;;20.60;99.90;;;;;;4837088;29;20131;-38
2022/08/08 09:01:11;;;;;;;;;;;20.60;99.90;;;;;;4840866;29;20443;-40
2022/08/08 09:03:39;;;;;;;;;;;20.90;99.90;;;;;;4844866;29;20405;-37
2022/08/08 09:06:06;;;;;;;;;;;20.90;99.90;;;;;;4841752;29;19956;-37
2022/08/08 09:08:33;;;;;;;;;;;21.00;99.90;;;;;;4846650;29;20285;-41
2022/08/08 09:10:59;;;;;;;;;;;21.30;99.90;;;;;;4842913;29;19924;-37
2022/08/08 09:13:25;;;;;;;;;;;21.90;99.90;;;;;;4844597;29;19940;-41
2022/08/08 09:15:51;;;;;;;;;;;22.20;99.90;;;;;;4856810;29;19970;-34
2022/08/08 09:18:16;;;;;;;;;;;22.40;99.90;;;;;;4850639;29;20429;-39
2022/08/08 09:20:45;;;;;;;;;;;22.30;99.90;;;;;;4826937;29;20003;-37
2022/08/08 09:23:14;;;;;;;;;;;22.10;99.90;;;;;;4845324;29;19920;-38
2022/08/08 09:25:48;;;;;;;;;;;21.60;99.90;;;;;;4842576;29;20411;-37
2022/08/08 09:28:14;;;;;;;;;;;21.20;99.90;;;;;;4843048;29;20389;-38
2022/08/08 09:30:41;;;;;;;;;;;21.00;99.90;;;;;;4846500;29;19958;-37
2022/08/08 09:33:08;;;;;;;;;;;20.90;99.90;;;;;;4847685;29;19916;-41
2022/08/08 09:35:36;;;;;;;;;;;20.70;99.90;;;;;;4839354;29;19920;-38
2022/08/08 09:38:02;;;;;;;;;;;20.70;99.90;;;;;;4851239;29;20293;-37
2022/08/08 09:40:29;;;;;;;;;;;20.90;99.90;;;;;;4846345;29;20373;-39
2022/08/08 09:42:55;;;;;;;;;;;21.50;99.90;;;;;;4858245;29;20396;-37
2022/08/08 09:45:21;;;;;;;;;;;21.50;99.90;;;;;;4848838;29;19927;-37
2022/08/08 09:47:48;;;;;;;;;;;21.30;99.90;;;;;;4846289;29;19935;-38
2022/08/08 09:50:15;;;;;;;;;;;21.10;99.90;;;;;;4850559;29;20381;-38
2022/08/08 09:52:41;;;;;;;;;;;21.00;99.90;;;;;;4845084;29;19920;-36
2022/08/08 09:55:08;;;;;;;;;;;21.10;99.90;;;;;;4847815;29;20370;-71
2022/08/08 09:57:35;;;;;;;;;;;21.10;99.90;;;;;;4849171;29;19919;-37
2022/08/08 10:00:01;;;;;;;;;;;21.30;99.90;;;;;;4846945;29;19912;-36
2022/08/08 10:02:32;;;;;;;;;;;21.70;99.90;;;;;;4844003;29;20373;-37
2022/08/08 10:05:02;;;;;;;;;;;22.10;99.90;;;;;;4851993;29;19915;-37
2022/08/08 10:07:28;;;;;;;;;;;22.10;99.90;;;;;;4845825;29;20316;-37
2022/08/08 10:09:53;;;;;;;;;;;22.00;99.90;;;;;;4849859;29;20006;-48
2022/08/08 10:12:29;;;;;;;;;;;21.90;99.90;;;;;;4848895;29;19916;-37
2022/08/08 10:14:59;;;;;;;;;;;22.40;99.90;;;;;;4848604;29;20446;-39
2022/08/08 10:17:24;;;;;;;;;;;23.10;99.90;;;;;;4844070;29;19908;-36
2022/08/08 10:19:52;;;;;;;;;;;23.70;99.90;;;;;;4849007;29;19908;-38
2022/08/08 10:22:19;;;;;;;;;;;23.80;99.90;;;;;;4844676;29;19919;-37
2022/08/08 10:24:45;;;;;;;;;;;23.80;99.90;;;;;;4833400;29;20281;-35
2022/08/08 10:27:10;;;;;;;;;;;24.00;99.90;;;;;;4846776;29;19916;-40
2022/08/08 10:29:47;;;;;;;;;;;24.20;99.70;;;;;;4840725;29;19956;-35
2022/08/08 10:32:31;;;;;;;;;;;24.20;98.80;;;;;;4842940;29;19919;-39
2022/08/08 10:35:00;;;;;;;;;;;24.40;99.30;;;;;;4844551;29;19922;-42
2022/08/08 10:37:27;;;;;;;;;;;24.90;99.90;;;;;;4837421;29;19916;-36
2022/08/08 10:39:54;;;;;;;;;;;25.40;99.30;;;;;;4843282;29;19920;-36
2022/08/08 10:42:21;;;;;;;;;;;25.50;98.80;;;;;;4857641;29;19912;-34
2022/08/08 10:44:47;;;;;;;;;;;25.30;98.80;;;;;;4849281;29;19920;-33
2022/08/08 10:47:13;;;;;;;;;;;24.90;99.10;;;;;;4845889;29;20411;-39
2022/08/08 10:49:39;;;;;;;;;;;25.00;99.00;;;;;;4851216;29;20413;-38
2022/08/08 10:52:05;;;;;;;;;;;25.30;98.30;;;;;;4853929;29;19919;-39
2022/08/08 10:54:31;;;;;;;;;;;25.10;98.00;;;;;;4841713;29;20433;-34
2022/08/08 10:56:57;;;;;;;;;;;25.10;98.00;;;;;;4825529;29;19917;-41
2022/08/08 10:59:23;;;;;;;;;;;25.00;96.60;;;;;;4852266;29;19912;-37
2022/08/08 11:01:49;;;;;;;;;;;25.00;96.70;;;;;;4853679;29;20293;-34
2022/08/08 11:04:15;;;;;;;;;;;25.00;96.20;;;;;;4846462;29;19913;-35
2022/08/08 11:06:41;;;;;;;;;;;24.90;96.30;;;;;;4822050;29;19912;-33
2022/08/08 11:09:07;;;;;;;;;;;24.70;97.00;;;;;;4824581;29;20063;-37
2022/08/08 11:11:42;;;;;;;;;;;24.90;97.40;;;;;;4830937;29;19912;-32
2022/08/08 11:14:09;;;;;;;;;;;25.00;97.50;;;;;;4841337;29;20060;-35
2022/08/08 11:16:35;;;;;;;;;;;25.10;97.70;;;;;;4843469;29;20014;-36
2022/08/08 11:19:02;;;;;;;;;;;25.30;97.60;;;;;;4841700;29;19908;-32
2022/08/08 11:21:29;;;;;;;;;;;25.10;96.70;;;;;;4838926;29;20362;-38
2022/08/08 11:23:57;;;;;;;;;;;25.20;97.20;;;;;;4851413;29;19913;-37
2022/08/08 11:26:26;;;;;;;;;;;25.40;97.50;;;;;;4846480;29;19943;-36
2022/08/08 11:28:52;;;;;;;;;;;25.50;96.70;;;;;;4840316;29;19920;-34
2022/08/08 11:31:18;;;;;;;;;;;25.20;96.70;;;;;;4845331;29;20353;-35
2022/08/08 11:33:48;;;;;;;;;;;24.90;97.00;;;;;;4838501;29;19912;-35
2022/08/08 11:36:14;;;;;;;;;;;24.80;97.60;;;;;;4839618;29;19908;-32
2022/08/08 11:38:41;;;;;;;;;;;24.80;97.70;;;;;;4839124;29;20365;-35
2022/08/08 11:41:06;;;;;;;;;;;24.90;97.00;;;;;;4839021;29;19916;-34
2022/08/08 11:43:32;;;;;;;;;;;24.90;97.00;;;;;;4852045;29;19923;-35
2022/08/08 11:45:58;;;;;;;;;;;24.40;97.30;;;;;;4838584;29;19923;-37
2022/08/08 11:48:23;;;;;;;;;;;24.00;98.00;;;;;;4850661;29;20301;-43
2022/08/08 11:50:49;;;;;;;;;;;23.70;98.50;;;;;;4839516;29;20279;-36
2022/08/08 11:53:15;;;;;;;;;;;23.90;98.50;;;;;;4840217;29;19976;-37
2022/08/08 11:55:48;;;;;;;;;;;24.00;98.60;;;;;;4839283;29;19917;-37
2022/08/08 11:58:13;;;;;;;;;;;24.20;98.20;;;;;;4843994;29;20556;-37
2022/08/08 12:00:46;;;;;;;;;;;24.30;98.10;;;;;;4848158;29;20003;-39
2022/08/08 12:03:35;;;;;;;;;;;24.60;98.20;;;;;;4849702;29;19923;-40
2022/08/08 12:06:10;;;;;;;;;;;24.60;98.50;;;;;;4847346;29;19912;-37
2022/08/08 12:08:36;;;;;;;;;;;24.50;98.40;;;;;;4854546;29;20333;-39
2022/08/08 12:11:15;;;;;;;;;;;24.70;98.00;;;;;;4845667;29;19966;-38
2022/08/08 12:13:41;;;;;;;;;;;24.70;98.20;;;;;;4846493;29;20369;-44
2022/08/08 12:16:11;;;;;;;;;;;24.80;98.10;;;;;;4845664;29;20268;-37
2022/08/08 12:18:49;;;;;;;;;;;24.70;98.10;;;;;;4841710;29;19915;-37
2022/08/08 12:21:19;;;;;;;;;;;24.60;97.60;;;;;;4846218;29;19913;-37
2022/08/08 12:23:45;;;;;;;;;;;24.60;97.40;;;;;;4845714;29;20421;-38
2022/08/08 12:26:11;;;;;;;;;;;24.60;97.60;;;;;;4840751;29;19912;-34
2022/08/08 12:28:37;;;;;;;;;;;24.60;97.80;;;;;;4841421;29;20381;-39
2022/08/08 12:31:09;;;;;;;;;;;24.60;97.70;;;;;;4839738;29;19995;-39
2022/08/08 12:33:38;;;;;;;;;;;24.80;97.60;;;;;;4846443;29;19911;-38
2022/08/08 12:36:11;;;;;;;;;;;24.70;97.40;;;;;;4841248;29;20423;-40
2022/08/08 12:38:50;;;;;;;;;;;24.70;97.90;;;;;;4846020;29;19965;-38
2022/08/08 12:41:16;;;;;;;;;;;24.70;97.40;;;;;;4843824;29;20403;-40
2022/08/08 12:43:41;;;;;;;;;;;24.80;97.00;;;;;;4853063;29;20277;-38
2022/08/08 12:46:16;;;;;;;;;;;24.80;96.80;;;;;;4840971;29;19925;-37
2022/08/08 12:48:52;;;;;;;;;;;24.70;97.30;;;;;;4837461;29;19919;-35
2022/08/08 12:51:18;;;;;;;;;;;24.90;97.40;;;;;;4839508;29;19920;-34
2022/08/08 12:53:57;;;;;;;;;;;24.90;97.20;;;;;;4845138;29;20270;-37
2022/08/08 12:56:38;;;;;;;;;;;24.80;96.90;;;;;;4843856;29;19913;-41
2022/08/08 12:59:15;;;;;;;;;;;24.80;96.80;;;;;;4847037;29;19918;-31
2022/08/08 13:01:41;;;;;;;;;;;24.80;96.90;;;;;;4850124;29;20354;-37
2022/08/08 13:04:13;;;;;;;;;;;24.80;96.70;;;;;;4848631;29;19992;-45
2022/08/08 13:06:39;;;;;;;;;;;25.10;96.40;;;;;;4839997;29;19922;-37
2022/08/08 13:09:08;;;;;;;;;;;25.00;96.50;;;;;;4841292;29;19916;-35
2022/08/08 13:11:37;;;;;;;;;;;24.90;97.10;;;;;;4842660;29;19943;-31
2022/08/08 13:14:14;;;;;;;;;;;24.90;97.40;;;;;;4845688;29;19926;-39
2022/08/08 13:16:40;;;;;;;;;;;24.70;97.30;;;;;;4850604;29;20011;-39
2022/08/08 13:19:06;;;;;;;;;;;24.10;97.80;;;;;;4844305;29;20010;-35
2022/08/08 13:21:52;;;;;;;;;;;23.80;98.10;;;;;;4842963;29;20366;-33
2022/08/08 13:24:18;;;;;;;;;;;23.80;98.20;;;;;;4846372;29;19991;-36
2022/08/08 13:26:43;;;;;;;;;;;24.30;97.70;;;;;;4843733;29;20377;-36
2022/08/08 13:29:09;;;;;;;;;;;24.70;97.00;;;;;;4846589;29;19955;-39
2022/08/08 13:31:35;;;;;;;;;;;24.90;95.90;;;;;;4849224;29;19955;-36
2022/08/08 13:34:01;;;;;;;;;;;25.00;96.00;;;;;;4846852;29;20340;-38
2022/08/08 13:36:26;;;;;;;;;;;25.10;96.20;;;;;;4851375;29;20271;-37
2022/08/08 13:38:52;;;;;;;;;;;25.30;95.70;;;;;;4846043;29;19977;-35
2022/08/08 13:41:18;;;;;;;;;;;25.40;95.90;;;;;;4848010;29;20353;-36
2022/08/08 13:43:45;;;;;;;;;;;25.30;95.70;;;;;;4862327;29;20357;-40
2022/08/08 13:46:11;;;;;;;;;;;25.10;96.10;;;;;;4840337;29;19924;-40
2022/08/08 13:48:47;;;;;;;;;;;24.90;96.40;;;;;;4842028;29;19913;-37
2022/08/08 13:51:13;;;;;;;;;;;24.70;96.40;;;;;;4842305;29;20327;-39
2022/08/08 13:53:39;;;;;;;;;;;24.60;96.60;;;;;;4847168;29;19912;-38
2022/08/08 13:56:07;;;;;;;;;;;24.60;97.00;;;;;;4845929;29;20366;-33
2022/08/08 13:58:33;;;;;;;;;;;24.70;96.50;;;;;;4839124;29;20396;-33
2022/08/08 14:01:12;;;;;;;;;;;24.60;96.90;;;;;;4849240;29;19963;-33
2022/08/08 14:03:38;;;;;;;;;;;24.70;96.90;;;;;;4846557;29;20255;-35
2022/08/08 14:06:09;;;;;;;;;;;24.80;96.70;;;;;;4842239;29;19913;-32
2022/08/08 14:08:42;;;;;;;;;;;25.00;96.80;;;;;;4840284;29;20414;-38
2022/08/08 14:11:07;;;;;;;;;;;25.20;96.40;;;;;;4851890;29;19913;-39
2022/08/08 14:13:33;;;;;;;;;;;25.20;96.30;;;;;;4846185;29;19919;-34
2022/08/08 14:16:03;;;;;;;;;;;25.40;96.50;;;;;;4840826;29;20320;-35
2022/08/08 14:18:28;;;;;;;;;;;25.30;96.10;;;;;;4842281;29;19919;-38
2022/08/08 14:21:02;;;;;;;;;;;25.00;96.40;;;;;;4841981;29;19912;-35
2022/08/08 14:23:38;;;;;;;;;;;25.00;96.50;;;;;;4848409;29;20303;-35
2022/08/08 14:26:03;;;;;;;;;;;24.80;96.90;;;;;;4860017;29;19912;-38
2022/08/08 14:28:29;;;;;;;;;;;24.90;96.90;;;;;;4846720;29;19920;-42
2022/08/08 14:31:04;;;;;;;;;;;25.10;97.30;;;;;;4850228;29;20353;-37
2022/08/08 14:33:30;;;;;;;;;;;25.20;97.10;;;;;;4857151;29;20372;-38
2022/08/08 14:35:59;;;;;;;;;;;25.20;97.20;;;;;;4861532;29;19911;-38